sensor_id;sensor_type;location;lat;lon;timestamp;temperature;humidity
3067;DHT22;1544;48.834;9.194;2023-07-31T00:02:09;18.10;37.40
3067;DHT22;1544;48.834;9.194;2023-07-31T00:04:45;18.20;37.50
3067;DHT22;1544;48.834;9.194;2023-07-31T00:07:21;18.20;37.50
3067;DHT22;1544;48.834;9.194;2023-07-31T00:09:57;18.10;37.30
3067;DHT22;1544;48.834;9.194;2023-07-31T00:12:33;18.10;37.70
3067;DHT22;1544;48.834;9.194;2023-07-31T00:15:09;18.10;37.70
3067;DHT22;1544;48.834;9.194;2023-07-31T00:17:45;18.10;37.80
3067;DHT22;1544;48.834;9.194;2023-07-31T00:20:22;18.10;37.90
3067;DHT22;1544;48.834;9.194;2023-07-31T00:22:58;18.00;37.80
3067;DHT22;1544;48.834;9.194;2023-07-31T00:25:34;16.90;37.00
3067;DHT22;1544;48.834;9.194;2023-07-31T00:28:10;17.90;38.00
3067;DHT22;1544;48.834;9.194;2023-07-31T00:30:47;17.90;37.70
3067;DHT22;1544;48.834;9.194;2023-07-31T00:33:23;17.80;38.00
3067;DHT22;1544;48.834;9.194;2023-07-31T00:35:58;17.80;38.00
3067;DHT22;1544;48.834;9.194;2023-07-31T00:38:34;17.80;38.00
3067;DHT22;1544;48.834;9.194;2023-07-31T00:41:10;17.80;38.10
3067;DHT22;1544;48.834;9.194;2023-07-31T00:43:46;17.70;38.20
3067;DHT22;1544;48.834;9.194;2023-07-31T00:46:22;17.70;38.30
3067;DHT22;1544;48.834;9.194;2023-07-31T00:48:59;17.70;38.40
3067;DHT22;1544;48.834;9.194;2023-07-31T00:51:35;17.70;38.50
3067;DHT22;1544;48.834;9.194;2023-07-31T00:54:11;17.70;38.60
3067;DHT22;1544;48.834;9.194;2023-07-31T00:56:47;17.60;38.50
3067;DHT22;1544;48.834;9.194;2023-07-31T00:59:24;17.60;38.50
3067;DHT22;1544;48.834;9.194;2023-07-31T01:02:00;17.50;38.60
3067;DHT22;1544;48.834;9.194;2023-07-31T01:04:36;17.50;38.90
3067;DHT22;1544;48.834;9.194;2023-07-31T01:07:22;17.40;39.00
3067;DHT22;1544;48.834;9.194;2023-07-31T01:10:24;17.30;38.90
3067;DHT22;1544;48.834;9.194;2023-07-31T01:13:03;17.30;39.30
3067;DHT22;1544;48.834;9.194;2023-07-31T01:15:39;17.30;39.50
3067;DHT22;1544;48.834;9.194;2023-07-31T01:18:15;17.30;39.70
3067;DHT22;1544;48.834;9.194;2023-07-31T01:20:57;17.20;39.80
3067;DHT22;1544;48.834;9.194;2023-07-31T01:24:07;17.20;40.00
3067;DHT22;1544;48.834;9.194;2023-07-31T01:27:18;17.10;39.80
3067;DHT22;1544;48.834;9.194;2023-07-31T01:30:07;17.10;39.90
3067;DHT22;1544;48.834;9.194;2023-07-31T01:32:48;17.10;40.00
3067;DHT22;1544;48.834;9.194;2023-07-31T01:35:25;17.10;40.40
3067;DHT22;1544;48.834;9.194;2023-07-31T01:38:01;17.10;39.90
3067;DHT22;1544;48.834;9.194;2023-07-31T01:40:40;17.20;40.00
3067;DHT22;1544;48.834;9.194;2023-07-31T01:43:17;17.20;40.00
3067;DHT22;1544;48.834;9.194;2023-07-31T01:45:54;17.20;40.00
3067;DHT22;1544;48.834;9.194;2023-07-31T01:48:30;17.20;40.00
3067;DHT22;1544;48.834;9.194;2023-07-31T01:51:11;17.20;39.90
3067;DHT22;1544;48.834;9.194;2023-07-31T01:56:23;17.20;40.10
3067;DHT22;1544;48.834;9.194;2023-07-31T01:58:59;17.20;40.40
3067;DHT22;1544;48.834;9.194;2023-07-31T02:01:36;17.20;40.20
3067;DHT22;1544;48.834;9.194;2023-07-31T02:04:12;17.20;40.30
3067;DHT22;1544;48.834;9.194;2023-07-31T02:09:24;17.20;40.20
3067;DHT22;1544;48.834;9.194;2023-07-31T02:14:37;17.20;40.40
3067;DHT22;1544;48.834;9.194;2023-07-31T02:17:13;17.20;40.40
3067;DHT22;1544;48.834;9.194;2023-07-31T02:19:49;17.20;40.30
3067;DHT22;1544;48.834;9.194;2023-07-31T02:22:25;17.20;40.30
3067;DHT22;1544;48.834;9.194;2023-07-31T02:25:01;17.20;40.30
3067;DHT22;1544;48.834;9.194;2023-07-31T02:27:37;17.20;40.40
3067;DHT22;1544;48.834;9.194;2023-07-31T02:30:13;17.20;40.40
3067;DHT22;1544;48.834;9.194;2023-07-31T02:32:49;17.10;40.30
3067;DHT22;1544;48.834;9.194;2023-07-31T02:35:25;17.10;40.30
3067;DHT22;1544;48.834;9.194;2023-07-31T02:38:01;17.10;40.40
3067;DHT22;1544;48.834;9.194;2023-07-31T02:40:37;17.10;40.50
3067;DHT22;1544;48.834;9.194;2023-07-31T02:43:13;17.10;40.50
3067;DHT22;1544;48.834;9.194;2023-07-31T02:45:52;17.10;40.60
3067;DHT22;1544;48.834;9.194;2023-07-31T02:48:28;17.10;40.70
3067;DHT22;1544;48.834;9.194;2023-07-31T02:51:05;17.00;40.70
3067;DHT22;1544;48.834;9.194;2023-07-31T02:53:41;17.00;40.70
3067;DHT22;1544;48.834;9.194;2023-07-31T03:01:30;17.00;40.80
3067;DHT22;1544;48.834;9.194;2023-07-31T03:04:07;17.00;40.80
3067;DHT22;1544;48.834;9.194;2023-07-31T03:06:43;17.00;40.90
3067;DHT22;1544;48.834;9.194;2023-07-31T03:09:19;16.90;40.80
3067;DHT22;1544;48.834;9.194;2023-07-31T03:11:54;16.90;40.90
3067;DHT22;1544;48.834;9.194;2023-07-31T03:14:30;16.90;41.00
3067;DHT22;1544;48.834;9.194;2023-07-31T03:19:43;16.90;41.00
3067;DHT22;1544;48.834;9.194;2023-07-31T03:22:19;16.90;40.90
3067;DHT22;1544;48.834;9.194;2023-07-31T03:24:55;16.90;40.80
3067;DHT22;1544;48.834;9.194;2023-07-31T03:27:31;17.00;40.80
3067;DHT22;1544;48.834;9.194;2023-07-31T03:30:07;17.00;40.80
3067;DHT22;1544;48.834;9.194;2023-07-31T03:32:43;17.00;40.80
3067;DHT22;1544;48.834;9.194;2023-07-31T03:35:19;17.00;40.70
3067;DHT22;1544;48.834;9.194;2023-07-31T03:37:55;17.00;40.70
3067;DHT22;1544;48.834;9.194;2023-07-31T03:40:31;17.00;40.40
3067;DHT22;1544;48.834;9.194;2023-07-31T03:43:08;16.90;40.40
3067;DHT22;1544;48.834;9.194;2023-07-31T03:45:46;16.90;40.40
3067;DHT22;1544;48.834;9.194;2023-07-31T03:48:22;16.90;40.30
3067;DHT22;1544;48.834;9.194;2023-07-31T03:50:58;16.90;40.70
3067;DHT22;1544;48.834;9.194;2023-07-31T03:53:34;16.80;40.30
3067;DHT22;1544;48.834;9.194;2023-07-31T03:56:10;16.80;40.40
3067;DHT22;1544;48.834;9.194;2023-07-31T03:58:47;16.80;40.50
3067;DHT22;1544;48.834;9.194;2023-07-31T04:01:22;16.80;40.40
3067;DHT22;1544;48.834;9.194;2023-07-31T04:03:59;16.90;40.50
3067;DHT22;1544;48.834;9.194;2023-07-31T04:06:35;16.90;40.40
3067;DHT22;1544;48.834;9.194;2023-07-31T04:09:11;17.00;40.30
3067;DHT22;1544;48.834;9.194;2023-07-31T04:11:47;16.90;40.20
3067;DHT22;1544;48.834;9.194;2023-07-31T04:14:23;17.00;40.60
3067;DHT22;1544;48.834;9.194;2023-07-31T04:16:59;17.10;40.20
3067;DHT22;1544;48.834;9.194;2023-07-31T04:19:35;17.10;39.90
3067;DHT22;1544;48.834;9.194;2023-07-31T04:22:11;17.10;39.70
3067;DHT22;1544;48.834;9.194;2023-07-31T04:24:47;17.20;39.60
3067;DHT22;1544;48.834;9.194;2023-07-31T04:27:23;17.20;39.40
3067;DHT22;1544;48.834;9.194;2023-07-31T04:29:59;17.30;39.40
3067;DHT22;1544;48.834;9.194;2023-07-31T04:32:35;17.40;39.30
3067;DHT22;1544;48.834;9.194;2023-07-31T04:35:11;17.30;39.40
3067;DHT22;1544;48.834;9.194;2023-07-31T04:43:01;17.60;39.00
3067;DHT22;1544;48.834;9.194;2023-07-31T04:45:37;17.70;38.90
3067;DHT22;1544;48.834;9.194;2023-07-31T04:50:50;17.80;38.70
3067;DHT22;1544;48.834;9.194;2023-07-31T04:53:26;17.80;39.00
3067;DHT22;1544;48.834;9.194;2023-07-31T04:56:02;17.80;38.90
3067;DHT22;1544;48.834;9.194;2023-07-31T04:58:38;17.80;39.00
3067;DHT22;1544;48.834;9.194;2023-07-31T05:01:14;17.90;39.50
3067;DHT22;1544;48.834;9.194;2023-07-31T05:03:51;18.00;39.20
3067;DHT22;1544;48.834;9.194;2023-07-31T05:06:27;17.90;39.00
3067;DHT22;1544;48.834;9.194;2023-07-31T05:09:03;18.00;39.00
3067;DHT22;1544;48.834;9.194;2023-07-31T05:11:39;18.10;38.70
3067;DHT22;1544;48.834;9.194;2023-07-31T05:14:16;18.20;39.10
3067;DHT22;1544;48.834;9.194;2023-07-31T05:16:52;18.20;38.80
3067;DHT22;1544;48.834;9.194;2023-07-31T05:19:28;18.20;38.70
3067;DHT22;1544;48.834;9.194;2023-07-31T05:22:04;18.20;38.70
3067;DHT22;1544;48.834;9.194;2023-07-31T05:24:40;18.20;38.70
3067;DHT22;1544;48.834;9.194;2023-07-31T05:27:16;18.30;38.70
3067;DHT22;1544;48.834;9.194;2023-07-31T05:29:54;18.40;38.70
3067;DHT22;1544;48.834;9.194;2023-07-31T05:32:30;18.40;38.70
3067;DHT22;1544;48.834;9.194;2023-07-31T05:35:06;18.50;39.00
3067;DHT22;1544;48.834;9.194;2023-07-31T05:37:42;18.50;38.50
3067;DHT22;1544;48.834;9.194;2023-07-31T05:40:18;18.60;38.30
3067;DHT22;1544;48.834;9.194;2023-07-31T05:42:54;18.60;38.30
3067;DHT22;1544;48.834;9.194;2023-07-31T05:45:30;18.70;38.40
3067;DHT22;1544;48.834;9.194;2023-07-31T05:48:06;22.00;41.00
3067;DHT22;1544;48.834;9.194;2023-07-31T05:50:43;18.80;38.00
3067;DHT22;1544;48.834;9.194;2023-07-31T05:53:19;18.90;37.70
3067;DHT22;1544;48.834;9.194;2023-07-31T05:55:55;19.00;37.60
3067;DHT22;1544;48.834;9.194;2023-07-31T05:58:31;19.00;37.60
3067;DHT22;1544;48.834;9.194;2023-07-31T06:01:07;19.00;37.00
3067;DHT22;1544;48.834;9.194;2023-07-31T06:03:43;19.30;37.60
3067;DHT22;1544;48.834;9.194;2023-07-31T06:06:19;19.00;37.40
3067;DHT22;1544;48.834;9.194;2023-07-31T06:08:55;19.10;37.50
3067;DHT22;1544;48.834;9.194;2023-07-31T06:11:31;19.10;37.40
3067;DHT22;1544;48.834;9.194;2023-07-31T06:14:07;19.10;37.40
3067;DHT22;1544;48.834;9.194;2023-07-31T06:16:44;19.10;37.40
3067;DHT22;1544;48.834;9.194;2023-07-31T06:19:20;19.20;37.40
3067;DHT22;1544;48.834;9.194;2023-07-31T06:21:56;19.30;37.50
3067;DHT22;1544;48.834;9.194;2023-07-31T06:24:32;19.40;37.30
3067;DHT22;1544;48.834;9.194;2023-07-31T06:27:08;19.50;37.30
3067;DHT22;1544;48.834;9.194;2023-07-31T06:29:44;19.60;36.80
3067;DHT22;1544;48.834;9.194;2023-07-31T06:32:20;19.70;37.20
3067;DHT22;1544;48.834;9.194;2023-07-31T06:34:56;19.70;36.90
3067;DHT22;1544;48.834;9.194;2023-07-31T06:37:32;19.80;37.00
3067;DHT22;1544;48.834;9.194;2023-07-31T06:40:11;20.20;36.30
3067;DHT22;1544;48.834;9.194;2023-07-31T06:42:47;20.20;36.60
3067;DHT22;1544;48.834;9.194;2023-07-31T06:45:23;20.30;36.00
3067;DHT22;1544;48.834;9.194;2023-07-31T06:47:59;20.30;35.90
3067;DHT22;1544;48.834;9.194;2023-07-31T06:50:37;20.40;35.80
3067;DHT22;1544;48.834;9.194;2023-07-31T06:53:13;20.70;35.80
3067;DHT22;1544;48.834;9.194;2023-07-31T06:55:49;20.70;35.30
3067;DHT22;1544;48.834;9.194;2023-07-31T06:58:27;20.80;35.20
3067;DHT22;1544;48.834;9.194;2023-07-31T07:01:03;20.90;34.80
3067;DHT22;1544;48.834;9.194;2023-07-31T07:03:39;21.00;34.80
3067;DHT22;1544;48.834;9.194;2023-07-31T07:06:15;21.20;34.90
3067;DHT22;1544;48.834;9.194;2023-07-31T07:08:51;21.20;34.90
3067;DHT22;1544;48.834;9.194;2023-07-31T07:11:27;21.20;34.50
3067;DHT22;1544;48.834;9.194;2023-07-31T07:14:03;21.20;34.40
3067;DHT22;1544;48.834;9.194;2023-07-31T07:16:39;21.30;34.10
3067;DHT22;1544;48.834;9.194;2023-07-31T07:19:17;21.40;34.30
3067;DHT22;1544;48.834;9.194;2023-07-31T07:21:53;21.70;34.30
3067;DHT22;1544;48.834;9.194;2023-07-31T07:24:29;21.80;34.00
3067;DHT22;1544;48.834;9.194;2023-07-31T07:27:05;21.90;33.80
3067;DHT22;1544;48.834;9.194;2023-07-31T07:29:41;20.30;32.40
3067;DHT22;1544;48.834;9.194;2023-07-31T07:32:17;22.30;34.00
3067;DHT22;1544;48.834;9.194;2023-07-31T07:34:55;22.30;33.60
3067;DHT22;1544;48.834;9.194;2023-07-31T07:37:32;22.40;33.80
3067;DHT22;1544;48.834;9.194;2023-07-31T07:40:08;22.30;32.90
3067;DHT22;1544;48.834;9.194;2023-07-31T07:42:45;22.30;33.30
3067;DHT22;1544;48.834;9.194;2023-07-31T07:45:21;22.20;33.40
3067;DHT22;1544;48.834;9.194;2023-07-31T07:47:56;22.10;33.40
3067;DHT22;1544;48.834;9.194;2023-07-31T07:50:33;22.20;33.50
3067;DHT22;1544;48.834;9.194;2023-07-31T07:53:09;22.20;33.50
3067;DHT22;1544;48.834;9.194;2023-07-31T07:55:45;22.10;33.50
3067;DHT22;1544;48.834;9.194;2023-07-31T07:58:21;22.10;33.50
3067;DHT22;1544;48.834;9.194;2023-07-31T08:00:57;22.20;34.00
3067;DHT22;1544;48.834;9.194;2023-07-31T08:03:33;22.20;33.70
3067;DHT22;1544;48.834;9.194;2023-07-31T08:06:09;22.30;33.80
3067;DHT22;1544;48.834;9.194;2023-07-31T08:08:46;22.30;33.70
3067;DHT22;1544;48.834;9.194;2023-07-31T08:11:21;22.20;33.60
3067;DHT22;1544;48.834;9.194;2023-07-31T08:13:59;22.40;33.40
3067;DHT22;1544;48.834;9.194;2023-07-31T08:16:35;22.30;33.40
3067;DHT22;1544;48.834;9.194;2023-07-31T08:19:11;22.30;33.50
3067;DHT22;1544;48.834;9.194;2023-07-31T08:21:47;22.40;33.40
3067;DHT22;1544;48.834;9.194;2023-07-31T08:24:23;22.40;33.50
3067;DHT22;1544;48.834;9.194;2023-07-31T08:26:59;22.40;32.90
3067;DHT22;1544;48.834;9.194;2023-07-31T08:29:35;22.40;33.20
3067;DHT22;1544;48.834;9.194;2023-07-31T08:32:11;22.50;33.20
3067;DHT22;1544;48.834;9.194;2023-07-31T08:34:47;22.70;33.10
3067;DHT22;1544;48.834;9.194;2023-07-31T08:37:23;22.90;33.10
3067;DHT22;1544;48.834;9.194;2023-07-31T08:39:59;23.20;32.90
3067;DHT22;1544;48.834;9.194;2023-07-31T08:42:43;23.40;32.80
3067;DHT22;1544;48.834;9.194;2023-07-31T08:45:20;23.50;32.50
3067;DHT22;1544;48.834;9.194;2023-07-31T08:47:57;24.00;32.70
3067;DHT22;1544;48.834;9.194;2023-07-31T08:50:34;24.00;32.70
3067;DHT22;1544;48.834;9.194;2023-07-31T08:53:11;24.10;32.20
3067;DHT22;1544;48.834;9.194;2023-07-31T08:55:49;24.20;31.50
3067;DHT22;1544;48.834;9.194;2023-07-31T08:58:28;24.10;31.40
3067;DHT22;1544;48.834;9.194;2023-07-31T09:01:07;24.10;31.60
3067;DHT22;1544;48.834;9.194;2023-07-31T09:03:44;24.20;31.30
3067;DHT22;1544;48.834;9.194;2023-07-31T09:06:22;24.30;31.70
3067;DHT22;1544;48.834;9.194;2023-07-31T09:08:59;24.40;31.60
3067;DHT22;1544;48.834;9.194;2023-07-31T09:11:35;24.50;31.40
3067;DHT22;1544;48.834;9.194;2023-07-31T09:14:12;24.30;31.30
3067;DHT22;1544;48.834;9.194;2023-07-31T09:16:56;24.40;32.00
3067;DHT22;1544;48.834;9.194;2023-07-31T09:19:35;24.40;31.60
3067;DHT22;1544;48.834;9.194;2023-07-31T09:22:14;24.50;31.90
3067;DHT22;1544;48.834;9.194;2023-07-31T09:24:50;24.30;31.30
3067;DHT22;1544;48.834;9.194;2023-07-31T09:27:26;24.40;31.50
3067;DHT22;1544;48.834;9.194;2023-07-31T09:30:02;24.40;31.40
3067;DHT22;1544;48.834;9.194;2023-07-31T09:32:38;24.40;31.70
3067;DHT22;1544;48.834;9.194;2023-07-31T09:35:21;24.50;31.80
3067;DHT22;1544;48.834;9.194;2023-07-31T09:38:10;24.50;32.00
3067;DHT22;1544;48.834;9.194;2023-07-31T09:40:49;24.60;31.90
3067;DHT22;1544;48.834;9.194;2023-07-31T09:43:25;24.70;31.60
3067;DHT22;1544;48.834;9.194;2023-07-31T09:46:01;24.70;31.40
3067;DHT22;1544;48.834;9.194;2023-07-31T09:48:38;24.70;31.50
3067;DHT22;1544;48.834;9.194;2023-07-31T09:51:15;24.70;31.70
3067;DHT22;1544;48.834;9.194;2023-07-31T09:53:50;24.90;31.80
3067;DHT22;1544;48.834;9.194;2023-07-31T09:56:27;25.00;31.80
3067;DHT22;1544;48.834;9.194;2023-07-31T09:59:04;25.20;32.30
3067;DHT22;1544;48.834;9.194;2023-07-31T10:01:42;25.50;32.10
3067;DHT22;1544;48.834;9.194;2023-07-31T10:04:20;25.70;31.60
3067;DHT22;1544;48.834;9.194;2023-07-31T10:07:03;25.80;31.40
3067;DHT22;1544;48.834;9.194;2023-07-31T10:09:39;25.90;30.90
3067;DHT22;1544;48.834;9.194;2023-07-31T10:12:18;25.90;30.70
3067;DHT22;1544;48.834;9.194;2023-07-31T10:14:55;25.60;30.40
3067;DHT22;1544;48.834;9.194;2023-07-31T10:17:33;25.80;30.10
3067;DHT22;1544;48.834;9.194;2023-07-31T10:20:10;25.90;30.50
3067;DHT22;1544;48.834;9.194;2023-07-31T10:22:46;25.90;30.90
3067;DHT22;1544;48.834;9.194;2023-07-31T10:25:23;26.00;30.30
3067;DHT22;1544;48.834;9.194;2023-07-31T10:28:00;26.00;30.10
3067;DHT22;1544;48.834;9.194;2023-07-31T10:30:37;26.10;30.90
3067;DHT22;1544;48.834;9.194;2023-07-31T10:33:15;26.20;30.80
3067;DHT22;1544;48.834;9.194;2023-07-31T10:36:17;26.40;30.50
3067;DHT22;1544;48.834;9.194;2023-07-31T10:38:56;26.50;30.10
3067;DHT22;1544;48.834;9.194;2023-07-31T10:41:32;26.60;29.70
3067;DHT22;1544;48.834;9.194;2023-07-31T10:44:08;26.80;30.40
3067;DHT22;1544;48.834;9.194;2023-07-31T10:46:45;26.90;30.00
3067;DHT22;1544;48.834;9.194;2023-07-31T10:49:21;27.10;30.30
3067;DHT22;1544;48.834;9.194;2023-07-31T10:51:57;27.10;29.20
3067;DHT22;1544;48.834;9.194;2023-07-31T10:54:33;27.00;29.60
3067;DHT22;1544;48.834;9.194;2023-07-31T10:57:22;27.10;29.50
3067;DHT22;1544;48.834;9.194;2023-07-31T11:00:18;27.10;29.50
3067;DHT22;1544;48.834;9.194;2023-07-31T11:03:04;27.20;29.60
3067;DHT22;1544;48.834;9.194;2023-07-31T11:08:30;27.40;29.30
3067;DHT22;1544;48.834;9.194;2023-07-31T11:11:13;27.60;29.00
3067;DHT22;1544;48.834;9.194;2023-07-31T11:13:54;27.60;29.10
3067;DHT22;1544;48.834;9.194;2023-07-31T11:16:31;27.60;29.10
3067;DHT22;1544;48.834;9.194;2023-07-31T11:19:08;27.60;28.80
3067;DHT22;1544;48.834;9.194;2023-07-31T11:21:44;27.50;29.30
3067;DHT22;1544;48.834;9.194;2023-07-31T11:24:20;27.50;29.00
3067;DHT22;1544;48.834;9.194;2023-07-31T11:26:56;27.40;28.80
3067;DHT22;1544;48.834;9.194;2023-07-31T11:29:32;27.20;29.10
3067;DHT22;1544;48.834;9.194;2023-07-31T11:32:16;27.20;29.30
3067;DHT22;1544;48.834;9.194;2023-07-31T11:34:53;27.30;29.60
3067;DHT22;1544;48.834;9.194;2023-07-31T11:37:41;27.40;29.50
3067;DHT22;1544;48.834;9.194;2023-07-31T11:40:18;27.40;28.80
3067;DHT22;1544;48.834;9.194;2023-07-31T11:43:02;27.30;29.10
3067;DHT22;1544;48.834;9.194;2023-07-31T11:45:40;27.20;29.10
3067;DHT22;1544;48.834;9.194;2023-07-31T11:48:20;27.10;29.50
3067;DHT22;1544;48.834;9.194;2023-07-31T11:51:10;26.90;29.30
3067;DHT22;1544;48.834;9.194;2023-07-31T11:53:51;26.80;29.60
3067;DHT22;1544;48.834;9.194;2023-07-31T11:56:28;26.90;29.60
3067;DHT22;1544;48.834;9.194;2023-07-31T11:59:04;26.90;29.80
3067;DHT22;1544;48.834;9.194;2023-07-31T12:01:43;27.00;30.00
3067;DHT22;1544;48.834;9.194;2023-07-31T12:04:20;27.10;30.10
3067;DHT22;1544;48.834;9.194;2023-07-31T12:07:00;27.30;30.00
3067;DHT22;1544;48.834;9.194;2023-07-31T12:09:36;27.50;29.70
3067;DHT22;1544;48.834;9.194;2023-07-31T12:12:19;27.70;29.40
3067;DHT22;1544;48.834;9.194;2023-07-31T12:14:57;27.70;29.60
3067;DHT22;1544;48.834;9.194;2023-07-31T12:17:33;27.50;29.30
3067;DHT22;1544;48.834;9.194;2023-07-31T12:20:10;27.50;29.40
3067;DHT22;1544;48.834;9.194;2023-07-31T12:22:46;27.50;29.70
3067;DHT22;1544;48.834;9.194;2023-07-31T12:25:22;27.40;29.50
3067;DHT22;1544;48.834;9.194;2023-07-31T12:28:03;27.40;30.00
3067;DHT22;1544;48.834;9.194;2023-07-31T12:30:40;27.50;29.60
3067;DHT22;1544;48.834;9.194;2023-07-31T12:33:18;27.80;29.60
3067;DHT22;1544;48.834;9.194;2023-07-31T12:35:55;27.90;29.30
3067;DHT22;1544;48.834;9.194;2023-07-31T12:38:31;27.90;29.50
3067;DHT22;1544;48.834;9.194;2023-07-31T12:41:07;28.00;29.90
3067;DHT22;1544;48.834;9.194;2023-07-31T12:43:44;28.10;29.50
3067;DHT22;1544;48.834;9.194;2023-07-31T12:46:21;28.30;29.70
3067;DHT22;1544;48.834;9.194;2023-07-31T12:48:57;28.20;29.10
3067;DHT22;1544;48.834;9.194;2023-07-31T12:51:32;28.00;29.30
3067;DHT22;1544;48.834;9.194;2023-07-31T12:54:08;27.90;29.20
3067;DHT22;1544;48.834;9.194;2023-07-31T12:56:44;27.80;29.30
3067;DHT22;1544;48.834;9.194;2023-07-31T12:59:21;27.80;29.50
3067;DHT22;1544;48.834;9.194;2023-07-31T13:01:57;27.80;29.50
3067;DHT22;1544;48.834;9.194;2023-07-31T13:04:33;27.70;29.30
3067;DHT22;1544;48.834;9.194;2023-07-31T13:07:09;27.70;29.20
3067;DHT22;1544;48.834;9.194;2023-07-31T13:12:21;27.50;28.50
3067;DHT22;1544;48.834;9.194;2023-07-31T13:14:57;27.40;28.70
3067;DHT22;1544;48.834;9.194;2023-07-31T13:17:33;27.30;29.00
3067;DHT22;1544;48.834;9.194;2023-07-31T13:20:09;26.90;28.70
3067;DHT22;1544;48.834;9.194;2023-07-31T13:22:46;26.60;29.00
3067;DHT22;1544;48.834;9.194;2023-07-31T13:27:58;26.40;29.30
3067;DHT22;1544;48.834;9.194;2023-07-31T13:30:37;26.40;29.80
3067;DHT22;1544;48.834;9.194;2023-07-31T13:33:13;26.50;30.00
3067;DHT22;1544;48.834;9.194;2023-07-31T13:36:10;26.80;29.80
3067;DHT22;1544;48.834;9.194;2023-07-31T13:38:46;27.10;29.70
3067;DHT22;1544;48.834;9.194;2023-07-31T13:41:23;27.40;29.50
3067;DHT22;1544;48.834;9.194;2023-07-31T13:43:59;27.70;29.40
3067;DHT22;1544;48.834;9.194;2023-07-31T13:46:35;27.90;29.10
3067;DHT22;1544;48.834;9.194;2023-07-31T13:49:11;28.00;29.20
3067;DHT22;1544;48.834;9.194;2023-07-31T13:51:47;28.30;29.40
3067;DHT22;1544;48.834;9.194;2023-07-31T13:54:23;28.30;29.30
3067;DHT22;1544;48.834;9.194;2023-07-31T13:57:02;28.40;28.40
3067;DHT22;1544;48.834;9.194;2023-07-31T13:59:38;28.30;28.70
3067;DHT22;1544;48.834;9.194;2023-07-31T14:02:14;28.60;28.60
3067;DHT22;1544;48.834;9.194;2023-07-31T14:04:50;29.00;28.70
3067;DHT22;1544;48.834;9.194;2023-07-31T14:07:26;29.20;28.40
3067;DHT22;1544;48.834;9.194;2023-07-31T14:10:02;29.40;28.30
3067;DHT22;1544;48.834;9.194;2023-07-31T14:12:39;29.40;28.60
3067;DHT22;1544;48.834;9.194;2023-07-31T14:15:18;29.70;28.70
3067;DHT22;1544;48.834;9.194;2023-07-31T14:17:54;29.90;28.50
3067;DHT22;1544;48.834;9.194;2023-07-31T14:20:32;30.10;28.00
3067;DHT22;1544;48.834;9.194;2023-07-31T14:23:08;30.10;28.10
3067;DHT22;1544;48.834;9.194;2023-07-31T14:25:44;30.00;28.30
3067;DHT22;1544;48.834;9.194;2023-07-31T14:28:20;29.90;27.90
3067;DHT22;1544;48.834;9.194;2023-07-31T14:30:56;29.90;28.30
3067;DHT22;1544;48.834;9.194;2023-07-31T14:33:32;30.00;28.20
3067;DHT22;1544;48.834;9.194;2023-07-31T14:36:08;30.00;28.80
3067;DHT22;1544;48.834;9.194;2023-07-31T14:38:44;29.90;28.30
3067;DHT22;1544;48.834;9.194;2023-07-31T14:41:20;29.80;27.90
3067;DHT22;1544;48.834;9.194;2023-07-31T14:43:56;29.80;28.20
3067;DHT22;1544;48.834;9.194;2023-07-31T14:46:32;29.70;28.40
3067;DHT22;1544;48.834;9.194;2023-07-31T14:49:08;29.60;28.20
3067;DHT22;1544;48.834;9.194;2023-07-31T14:51:44;29.50;28.30
3067;DHT22;1544;48.834;9.194;2023-07-31T14:54:20;29.40;28.50
3067;DHT22;1544;48.834;9.194;2023-07-31T14:56:56;29.40;28.90
3067;DHT22;1544;48.834;9.194;2023-07-31T14:59:32;29.50;28.50
3067;DHT22;1544;48.834;9.194;2023-07-31T15:02:09;29.50;28.50
3067;DHT22;1544;48.834;9.194;2023-07-31T15:04:45;29.70;28.70
3067;DHT22;1544;48.834;9.194;2023-07-31T15:07:21;29.80;28.90
3067;DHT22;1544;48.834;9.194;2023-07-31T15:09:57;30.10;28.80
3067;DHT22;1544;48.834;9.194;2023-07-31T15:12:33;30.40;28.70
3067;DHT22;1544;48.834;9.194;2023-07-31T15:15:09;30.90;28.70
3067;DHT22;1544;48.834;9.194;2023-07-31T15:17:45;31.40;29.00
3067;DHT22;1544;48.834;9.194;2023-07-31T15:20:21;32.10;27.40
3067;DHT22;1544;48.834;9.194;2023-07-31T15:22:57;32.10;27.60
3067;DHT22;1544;48.834;9.194;2023-07-31T15:25:33;32.20;27.60
3067;DHT22;1544;48.834;9.194;2023-07-31T15:28:09;32.00;27.10
3067;DHT22;1544;48.834;9.194;2023-07-31T15:30:45;31.80;27.20
3067;DHT22;1544;48.834;9.194;2023-07-31T15:33:21;31.70;27.30
3067;DHT22;1544;48.834;9.194;2023-07-31T15:35:57;31.50;27.10
3067;DHT22;1544;48.834;9.194;2023-07-31T15:38:33;31.40;27.30
3067;DHT22;1544;48.834;9.194;2023-07-31T15:41:09;31.20;27.10
3067;DHT22;1544;48.834;9.194;2023-07-31T15:43:45;31.00;27.30
3067;DHT22;1544;48.834;9.194;2023-07-31T15:46:21;30.80;27.50
3067;DHT22;1544;48.834;9.194;2023-07-31T15:48:57;30.60;27.50
3067;DHT22;1544;48.834;9.194;2023-07-31T15:51:35;30.70;27.40
3067;DHT22;1544;48.834;9.194;2023-07-31T15:54:11;30.80;27.20
3067;DHT22;1544;48.834;9.194;2023-07-31T15:56:47;30.70;27.10
3067;DHT22;1544;48.834;9.194;2023-07-31T15:59:23;30.50;27.10
3067;DHT22;1544;48.834;9.194;2023-07-31T16:01:59;30.50;27.50
3067;DHT22;1544;48.834;9.194;2023-07-31T16:04:35;30.60;27.60
3067;DHT22;1544;48.834;9.194;2023-07-31T16:07:11;30.80;27.40
3067;DHT22;1544;48.834;9.194;2023-07-31T16:09:48;31.10;27.80
3067;DHT22;1544;48.834;9.194;2023-07-31T16:12:23;31.80;27.30
3067;DHT22;1544;48.834;9.194;2023-07-31T16:14:59;32.60;27.70
3067;DHT22;1544;48.834;9.194;2023-07-31T16:17:36;33.60;27.20
3067;DHT22;1544;48.834;9.194;2023-07-31T16:22:49;33.60;26.30
3067;DHT22;1544;48.834;9.194;2023-07-31T16:25:25;33.50;26.70
3067;DHT22;1544;48.834;9.194;2023-07-31T16:28:01;32.90;26.70
3067;DHT22;1544;48.834;9.194;2023-07-31T16:30:37;32.20;26.70
3067;DHT22;1544;48.834;9.194;2023-07-31T16:35:51;31.20;27.20
3067;DHT22;1544;48.834;9.194;2023-07-31T16:38:27;31.20;27.40
3067;DHT22;1544;48.834;9.194;2023-07-31T16:41:03;30.70;27.60
3067;DHT22;1544;48.834;9.194;2023-07-31T16:43:39;30.40;27.30
3067;DHT22;1544;48.834;9.194;2023-07-31T16:46:15;30.40;27.60
3067;DHT22;1544;48.834;9.194;2023-07-31T16:48:51;29.50;27.90
3067;DHT22;1544;48.834;9.194;2023-07-31T16:56:40;28.10;28.50
3067;DHT22;1544;48.834;9.194;2023-07-31T16:59:33;27.60;28.80
3067;DHT22;1544;48.834;9.194;2023-07-31T17:02:09;27.20;29.00
3067;DHT22;1544;48.834;9.194;2023-07-31T17:04:46;27.00;29.20
3067;DHT22;1544;48.834;9.194;2023-07-31T17:09:58;26.40;29.70
3067;DHT22;1544;48.834;9.194;2023-07-31T17:15:11;26.10;29.90
3067;DHT22;1544;48.834;9.194;2023-07-31T17:17:51;26.10;30.10
3067;DHT22;1544;48.834;9.194;2023-07-31T17:20:30;26.00;30.40
3067;DHT22;1544;48.834;9.194;2023-07-31T17:23:07;25.90;30.60
3067;DHT22;1544;48.834;9.194;2023-07-31T17:25:43;25.80;30.80
3067;DHT22;1544;48.834;9.194;2023-07-31T17:28:19;25.80;31.40
3067;DHT22;1544;48.834;9.194;2023-07-31T17:30:56;25.50;31.50
3067;DHT22;1544;48.834;9.194;2023-07-31T17:33:32;25.40;31.50
3067;DHT22;1544;48.834;9.194;2023-07-31T17:36:09;25.40;31.40
3067;DHT22;1544;48.834;9.194;2023-07-31T17:38:45;25.40;31.70
3067;DHT22;1544;48.834;9.194;2023-07-31T17:41:21;25.20;31.90
3067;DHT22;1544;48.834;9.194;2023-07-31T17:43:59;25.10;32.10
3067;DHT22;1544;48.834;9.194;2023-07-31T17:46:35;25.00;32.10
3067;DHT22;1544;48.834;9.194;2023-07-31T17:49:11;25.10;32.20
3067;DHT22;1544;48.834;9.194;2023-07-31T17:51:47;25.00;32.70
3067;DHT22;1544;48.834;9.194;2023-07-31T17:54:23;24.80;32.60